Time;durP1;ratioP1;P1;durP2;ratioP2;P2;SDS_P1;SDS_P2;PMS_P1;PMS_P2;Temp;Humidity;BMP_temperature;BMP_pressure;BME280_temperature;BME280_humidity;BME280_pressure;Samples;Min_cycle;Max_cycle;Signal;HPM_P1;HPM_P2
2022/06/17 00:01:11;;;;;;;0.40;0.30;;;;;;;21.03;100.00;95658.47;5092710;28;20499;-63
2022/06/17 00:03:39;;;;;;;0.83;0.83;;;;;;;20.19;100.00;95546.25;5092383;28;20429;-63
2022/06/17 00:06:13;;;;;;;0.70;0.67;;;;;;;20.97;100.00;95662.50;5091843;28;20908;-62
2022/06/17 00:08:45;;;;;;;1.30;0.90;;;;;;;20.85;100.00;95658.59;5092606;28;20532;-62
2022/06/17 00:11:17;;;;;;;0.63;0.63;;;;;;;20.96;100.00;95653.59;5092230;28;20456;-62
2022/06/17 00:13:46;;;;;;;0.97;0.80;;;;;;;20.85;100.00;95647.00;5092251;28;20448;-62
2022/06/17 00:16:35;;;;;;;0.50;0.47;;;;;;;20.86;100.00;95651.28;5092201;28;20424;-62
2022/06/17 00:19:04;;;;;;;0.67;0.67;;;;;;;20.66;100.00;95650.13;5092038;28;20462;-62
2022/06/17 00:21:37;;;;;;;0.60;0.60;;;;;;;20.48;100.00;95650.53;5092185;28;20503;-62
2022/06/17 00:24:15;;;;;;;0.80;0.43;;;;;;;19.56;100.00;95479.91;5092340;28;20455;-63
2022/06/17 00:26:44;;;;;;;0.60;0.60;;;;;;;20.66;100.00;95649.34;5092133;28;20866;-63
2022/06/17 00:29:15;;;;;;;0.60;0.57;;;;;;;20.74;100.00;95643.91;5091653;28;20507;-63
2022/06/17 00:31:43;;;;;;;0.77;0.77;;;;;;;20.67;100.00;95649.00;5092185;28;20517;-63
2022/06/17 00:34:12;;;;;;;0.83;0.60;;;;;;;20.68;100.00;95655.19;5092219;28;20424;-63
2022/06/17 00:36:43;;;;;;;1.03;1.03;;;;;;;20.61;100.00;95647.63;5091910;28;20425;-63
2022/06/17 00:39:14;;;;;;;0.53;0.40;;;;;;;20.54;100.00;95649.25;5092208;28;20511;-64
2022/06/17 00:41:48;;;;;;;0.60;0.50;;;;;;;20.55;100.00;95646.22;5091484;28;20444;-63
2022/06/17 00:44:29;;;;;;;0.70;0.60;;;;;;;20.48;100.00;95642.44;5091892;28;20452;-64
2022/06/17 00:47:09;;;;;;;1.50;0.70;;;;;;;20.47;100.00;95641.66;5091968;28;20450;-63
2022/06/17 00:49:46;;;;;;;1.27;0.40;;;;;;;19.90;100.00;95554.31;5096122;28;20871;-64
2022/06/17 00:52:23;;;;;;;11.37;0.63;;;;;;;20.32;100.00;95641.41;5095776;28;20464;-64
2022/06/17 00:54:55;;;;;;;0.63;0.53;;;;;;;20.29;100.00;95634.00;5095886;28;20503;-64
2022/06/17 00:57:30;;;;;;;0.50;0.50;;;;;;;20.40;100.00;95636.00;5096172;28;20799;-64
2022/06/17 01:00:12;;;;;;;0.77;0.77;;;;;;;20.52;100.00;95643.38;5096152;28;20511;-64
2022/06/17 01:02:46;;;;;;;0.40;0.30;;;;;;;20.56;100.00;95638.94;5096116;28;20448;-64
2022/06/17 01:05:17;;;;;;;0.67;0.57;;;;;;;20.54;100.00;95639.25;5095833;28;20421;-64
2022/06/17 01:07:52;;;;;;;1.47;0.50;;;;;;;20.55;100.00;95629.25;5095676;28;20504;-64
2022/06/17 01:10:20;;;;;;;0.50;0.40;;;;;;;20.50;100.00;95624.06;5095984;28;20424;-64
2022/06/17 01:12:55;;;;;;;0.50;0.40;;;;;;;20.40;100.00;95616.34;5095553;28;20559;-64
2022/06/17 01:15:26;;;;;;;0.60;0.50;;;;;;;20.44;100.00;95633.44;5095689;28;20459;-64
2022/06/17 01:17:55;;;;;;;0.50;0.43;;;;;;;20.48;100.00;95626.28;5095535;28;20965;-64
2022/06/17 01:20:26;;;;;;;0.50;0.33;;;;;;;20.48;100.00;95631.69;5095830;28;20428;-64
2022/06/17 01:22:58;;;;;;;0.70;0.70;;;;;;;20.47;100.00;95632.78;5095274;28;20420;-64
2022/06/17 01:25:29;;;;;;;2.37;1.33;;;;;;;20.46;100.00;95637.41;5095432;28;20474;-64
2022/06/17 01:28:00;;;;;;;0.60;0.57;;;;;;;20.38;100.00;95626.66;5095393;28;20963;-64
2022/06/17 01:30:33;;;;;;;0.50;0.33;;;;;;;20.47;100.00;95638.97;5095060;28;20431;-65
2022/06/17 01:33:06;;;;;;;0.50;0.50;;;;;;;20.33;100.00;95632.22;5095459;28;20460;-64
2022/06/17 01:35:41;;;;;;;0.70;0.70;;;;;;;19.75;100.00;95630.13;5095287;28;20459;-64
2022/06/17 01:38:12;;;;;;;0.60;0.37;;;;;;;19.83;100.00;95623.97;5095361;28;20459;-65
2022/06/17 01:40:40;;;;;;;0.73;0.70;;;;;;;19.96;100.00;95612.97;5095519;28;20428;-65
2022/06/17 01:43:30;;;;;;;1.20;0.63;;;;;;;20.15;100.00;95623.38;5095194;28;20431;-65
2022/06/17 01:46:03;;;;;;;2.40;1.13;;;;;;;20.13;100.00;95625.63;5095273;28;20523;-65
2022/06/17 01:48:38;;;;;;;0.70;0.40;;;;;;;20.10;100.00;95608.22;5094976;28;20456;-65
2022/06/17 01:51:08;;;;;;;1.07;0.53;;;;;;;20.10;100.00;95618.97;5094952;28;20973;-65
2022/06/17 01:53:44;;;;;;;0.80;0.80;;;;;;;19.52;100.00;95535.44;5094730;28;20543;-65
2022/06/17 01:56:16;;;;;;;0.97;0.73;;;;;;;20.20;100.00;95615.94;5096956;28;20489;-66
2022/06/17 01:58:50;;;;;;;0.40;0.40;;;;;;;20.21;100.00;95614.81;5094190;28;20499;-65
2022/06/17 02:01:19;;;;;;;1.37;0.87;;;;;;;20.26;100.00;95611.97;5094780;28;20424;-65
2022/06/17 02:03:52;;;;;;;0.60;0.40;;;;;;;20.10;100.00;95600.13;5094801;28;20417;-65
2022/06/17 02:06:33;;;;;;;0.50;0.30;;;;;;;20.04;100.00;95619.44;5094651;28;20435;-65
2022/06/17 02:09:04;;;;;;;0.90;0.90;;;;;;;19.79;100.00;95620.31;5093652;28;20467;-65
2022/06/17 02:11:34;;;;;;;0.93;0.40;;;;;;;19.84;100.00;95609.38;5094938;28;20455;-65
2022/06/17 02:14:06;;;;;;;0.87;0.57;;;;;;;19.94;100.00;95611.72;5094441;28;20460;-65
2022/06/17 02:16:37;;;;;;;0.40;0.40;;;;;;;19.92;100.00;95601.31;5094721;28;20424;-65
2022/06/17 02:19:06;;;;;;;0.67;0.67;;;;;;;19.71;100.00;95616.53;5094726;28;20428;-65
2022/06/17 02:21:39;;;;;;;1.60;0.67;;;;;;;19.62;100.00;95626.50;5094715;28;20784;-65
2022/06/17 02:24:26;;;;;;;1.20;0.83;;;;;;;19.27;100.00;95630.31;5094373;28;20440;-65
2022/06/17 02:26:56;;;;;;;0.60;0.43;;;;;;;19.31;100.00;95629.34;5094183;28;20956;-65
2022/06/17 02:29:25;;;;;;;1.77;0.90;;;;;;;19.46;100.00;95622.72;5094466;28;20789;-65
2022/06/17 02:31:55;;;;;;;0.50;0.47;;;;;;;19.72;100.00;95631.56;5094430;28;20485;-65
2022/06/17 02:34:25;;;;;;;1.03;1.00;;;;;;;19.92;100.00;95622.81;5093538;28;20464;-65
2022/06/17 02:37:16;;;;;;;2.60;0.50;;;;;;;19.88;100.00;95621.09;5094045;28;20427;-65
2022/06/17 02:39:48;;;;;;;0.40;0.30;;;;;;;19.61;100.00;95598.84;5094073;28;20482;-64
2022/06/17 02:42:20;;;;;;;0.90;0.50;;;;;;;20.06;100.00;95638.78;5093987;28;20452;-65
2022/06/17 02:44:51;;;;;;;0.50;0.50;;;;;;;20.11;100.00;95625.91;5093952;28;20928;-65
2022/06/17 02:47:19;;;;;;;0.63;0.40;;;;;;;20.03;100.00;95625.97;5094174;28;20564;-64
2022/06/17 02:49:48;;;;;;;0.50;0.30;;;;;;;20.08;100.00;95641.94;5093841;28;20460;-64
2022/06/17 02:52:19;;;;;;;1.23;0.40;;;;;;;20.01;100.00;95637.03;5093864;28;20425;-64
2022/06/17 02:54:55;;;;;;;0.50;0.30;;;;;;;20.17;100.00;95634.63;5092832;28;20531;-64
2022/06/17 02:57:26;;;;;;;2.43;0.80;;;;;;;20.26;100.00;95643.50;5092500;28;20522;-64
2022/06/17 03:00:01;;;;;;;0.70;0.60;;;;;;;20.27;100.00;95650.44;5093586;28;20450;-64
2022/06/17 03:02:33;;;;;;;0.50;0.37;;;;;;;19.72;100.00;95572.41;5093585;28;21053;-64
2022/06/17 03:05:02;;;;;;;0.60;0.50;;;;;;;20.09;100.00;95638.13;5093829;28;20417;-65
2022/06/17 03:07:32;;;;;;;0.77;0.70;;;;;;;19.78;100.00;95643.75;5093195;28;20811;-64
2022/06/17 03:10:02;;;;;;;1.70;0.77;;;;;;;19.62;100.00;95646.13;5092524;28;20468;-64
2022/06/17 03:12:32;;;;;;;0.90;0.90;;;;;;;19.37;100.00;95648.84;5093106;28;20464;-64
2022/06/17 03:15:05;;;;;;;0.63;0.60;;;;;;;19.61;100.00;95644.53;5093253;28;20510;-64
2022/06/17 03:17:39;;;;;;;0.73;0.60;;;;;;;19.70;100.00;95644.53;5093207;28;20474;-64
2022/06/17 03:20:11;;;;;;;0.90;0.50;;;;;;;19.24;100.00;95596.00;5093250;28;20415;-64
2022/06/17 03:22:39;;;;;;;0.77;0.77;;;;;;;19.68;100.00;95644.06;5093406;28;20495;-64
2022/06/17 03:25:46;;;;;;;2.43;1.80;;;;;;;19.41;100.00;95649.78;5093189;28;20431;-64
2022/06/17 03:28:19;;;;;;;1.13;1.10;;;;;;;19.43;100.00;95658.34;5092125;28;21014;-64
2022/06/17 03:30:52;;;;;;;0.50;0.50;;;;;;;19.40;100.00;95653.59;5092969;28;20452;-64
2022/06/17 03:33:46;;;;;;;0.70;0.70;;;;;;;19.59;100.00;95664.78;5092821;28;20515;-64
2022/06/17 03:36:39;;;;;;;0.60;0.60;;;;;;;19.55;100.00;95667.34;5092748;28;20472;-65
2022/06/17 03:39:17;;;;;;;1.13;1.10;;;;;;;19.31;100.00;95664.28;5092800;28;20468;-65
2022/06/17 03:42:29;;;;;;;2.30;1.13;;;;;;;19.56;100.00;95657.34;5093020;28;20993;-65
2022/06/17 03:45:13;;;;;;;0.70;0.60;;;;;;;19.69;100.00;95659.09;5092743;28;20493;-65
2022/06/17 03:47:46;;;;;;;0.40;0.30;;;;;;;19.55;100.00;95656.59;5092728;28;20420;-65
2022/06/17 03:50:30;;;;;;;0.67;0.60;;;;;;;19.25;100.00;95648.66;5093124;28;20549;-65
2022/06/17 03:53:02;;;;;;;0.63;0.63;;;;;;;19.49;100.00;95655.16;5093049;28;20448;-65
2022/06/17 03:55:31;;;;;;;16.30;0.77;;;;;;;19.58;100.00;95657.84;5092364;28;20507;-65
2022/06/17 03:58:05;;;;;;;0.70;0.40;;;;;;;19.60;100.00;95653.75;5092733;28;20452;-65
2022/06/17 04:00:42;;;;;;;0.50;0.50;;;;;;;19.64;100.00;95656.56;5092296;28;20459;-65
2022/06/17 04:03:14;;;;;;;0.60;0.60;;;;;;;19.56;100.00;95651.97;5092932;28;20478;-65
2022/06/17 04:05:52;;;;;;;0.80;0.80;;;;;;;19.61;100.00;95649.13;5092742;28;20451;-78
2022/06/17 04:08:21;;;;;;;1.60;1.53;;;;;;;19.58;100.00;95655.16;5094424;28;20435;-64
2022/06/17 04:10:50;;;;;;;0.97;0.97;;;;;;;19.62;100.00;95635.38;5095563;28;20940;-64
2022/06/17 04:13:42;;;;;;;0.57;0.40;;;;;;;19.83;100.00;95654.34;5093102;28;20424;-64
2022/06/17 04:16:36;;;;;;;0.60;0.53;;;;;;;19.88;100.00;95648.78;5092188;28;20463;-64
2022/06/17 04:19:14;;;;;;;1.07;0.37;;;;;;;19.44;100.00;95581.94;5092243;28;20425;-64
2022/06/17 04:24:27;;;;;;;0.70;0.50;;;;;;;20.08;100.00;95653.50;5091824;28;20478;-63
2022/06/17 04:27:02;;;;;;;0.77;0.77;;;;;;;19.99;100.00;95631.19;5092255;28;20923;-64
2022/06/17 04:29:39;;;;;;;2.53;0.80;;;;;;;19.79;100.00;95617.63;5092184;28;20506;-64
2022/06/17 04:32:30;;;;;;;0.70;0.70;;;;;;;20.13;100.00;95644.44;5092083;28;20428;-64
2022/06/17 04:35:00;;;;;;;5.70;0.93;;;;;;;20.16;100.00;95647.28;5091845;28;20879;-64
2022/06/17 04:37:29;;;;;;;1.37;0.70;;;;;;;20.29;100.00;95647.44;5091982;28;20452;-63
2022/06/17 04:40:01;;;;;;;0.63;0.60;;;;;;;20.32;100.00;95644.09;5092252;28;20500;-63
2022/06/17 04:42:34;;;;;;;1.13;1.00;;;;;;;20.44;100.00;95644.22;5092299;28;20899;-63
2022/06/17 04:45:05;;;;;;;0.50;0.40;;;;;;;20.52;100.00;95646.06;5092008;28;20447;-63
2022/06/17 04:47:34;;;;;;;1.47;0.87;;;;;;;20.21;100.00;95593.28;5091897;28;20869;-62
2022/06/17 04:50:09;;;;;;;1.07;0.97;;;;;;;20.72;100.00;95634.59;5092006;28;20456;-62
2022/06/17 04:52:42;;;;;;;0.50;0.40;;;;;;;20.63;100.00;95631.13;5091834;28;20911;-61
2022/06/17 04:55:16;;;;;;;2.30;1.03;;;;;;;20.75;100.00;95634.72;5091431;28;20523;-61
2022/06/17 04:57:45;;;;;;;0.70;0.70;;;;;;;20.46;100.00;95637.41;5091742;28;20517;-61
2022/06/17 05:00:20;;;;;;;1.10;1.00;;;;;;;20.45;100.00;95633.13;5092112;28;20452;-60
2022/06/17 05:02:49;;;;;;;0.93;0.93;;;;;;;20.43;100.00;95638.03;5091813;28;20519;-60
2022/06/17 05:05:26;;;;;;;2.20;0.50;;;;;;;20.39;100.00;95633.63;5091490;28;20417;-60
2022/06/17 05:07:56;;;;;;;1.10;0.97;;;;;;;20.39;100.00;95639.00;5091459;28;20546;-61
2022/06/17 05:10:35;;;;;;;1.10;1.10;;;;;;;20.29;100.00;95642.81;5091170;28;20428;-61
2022/06/17 05:13:08;;;;;;;0.73;0.73;;;;;;;20.75;100.00;95645.47;5091688;28;20424;-58
2022/06/17 05:15:39;;;;;;;0.70;0.70;;;;;;;21.06;100.00;95601.25;5091831;28;20492;-61
2022/06/17 05:18:07;;;;;;;0.97;0.97;;;;;;;21.35;100.00;95607.34;5091565;28;20478;-63
2022/06/17 05:20:36;;;;;;;1.17;1.07;;;;;;;21.80;100.00;95657.91;5091824;28;20954;-64
2022/06/17 05:23:08;;;;;;;0.80;0.80;;;;;;;21.96;100.00;95629.22;5091521;28;20428;-61
2022/06/17 05:25:43;;;;;;;1.13;0.77;;;;;;;22.29;100.00;95635.34;5091622;28;20891;-61
2022/06/17 05:28:14;;;;;;;1.37;1.23;;;;;;;22.21;100.00;95630.84;5091540;28;20835;-61
2022/06/17 05:30:52;;;;;;;1.10;0.97;;;;;;;21.75;100.00;95633.84;5091540;28;20420;-56
2022/06/17 05:33:25;;;;;;;0.60;0.60;;;;;;;21.94;100.00;95636.84;5091053;28;20462;-56
2022/06/17 05:35:56;;;;;;;1.60;1.50;;;;;;;21.82;100.00;95585.50;5095760;28;20467;-56
2022/06/17 05:38:25;;;;;;;1.63;1.53;;;;;;;22.09;100.00;95625.41;5095613;28;20851;-57
2022/06/17 05:40:53;;;;;;;0.77;0.53;;;;;;;21.79;100.00;95629.34;5095270;28;20424;-57
2022/06/17 05:43:22;;;;;;;0.87;0.87;;;;;;;21.94;100.00;95612.56;5095352;28;20467;-56
2022/06/17 05:45:52;;;;;;;3.80;1.33;;;;;;;21.85;100.00;95630.72;5095336;28;20503;-56
2022/06/17 05:48:20;;;;;;;1.60;1.50;;;;;;;21.22;100.00;95630.00;5095087;28;20432;-56
2022/06/17 05:50:48;;;;;;;1.50;1.50;;;;;;;21.76;100.00;95633.50;5095181;28;20459;-56
2022/06/17 05:53:17;;;;;;;1.03;1.03;;;;;;;22.21;100.00;95614.66;5095036;28;20467;-56
2022/06/17 05:55:45;;;;;;;1.27;1.17;;;;;;;22.43;100.00;95567.50;5094980;28;21086;-56
2022/06/17 05:58:14;;;;;;;0.60;0.60;;;;;;;23.04;100.00;95598.78;5094940;28;20448;-56
2022/06/17 06:00:42;;;;;;;1.70;1.00;;;;;;;23.26;100.00;95614.50;5094880;28;20456;-56
2022/06/17 06:03:20;;;;;;;1.33;1.33;;;;;;;22.94;100.00;95604.66;5094674;28;20425;-57
2022/06/17 06:05:49;;;;;;;1.97;1.87;;;;;;;22.68;100.00;95569.91;5094661;28;20427;-58
2022/06/17 06:08:18;;;;;;;0.83;0.80;;;;;;;21.99;100.00;95474.69;5095005;28;20508;-59
2022/06/17 06:10:48;;;;;;;1.20;0.80;;;;;;;22.88;100.00;95610.63;5094671;28;20504;-56
2022/06/17 06:13:18;;;;;;;0.77;0.60;;;;;;;22.97;100.00;95603.97;5095043;28;20425;-57
2022/06/17 06:15:49;;;;;;;0.70;0.60;;;;;;;23.17;100.00;95558.97;5094810;28;20499;-57
2022/06/17 06:18:21;;;;;;;2.13;1.23;;;;;;;23.90;100.00;95570.28;5094787;28;20447;-56
2022/06/17 06:20:51;;;;;;;0.90;0.83;;;;;;;24.21;100.00;95602.06;5094297;28;20477;-57
2022/06/17 06:23:22;;;;;;;0.73;0.63;;;;;;;24.40;100.00;95594.81;5094886;28;20435;-58
2022/06/17 06:25:50;;;;;;;1.07;1.07;;;;;;;24.48;100.00;95561.34;5094657;28;20511;-57
2022/06/17 06:28:20;;;;;;;1.20;1.10;;;;;;;23.71;100.00;95600.72;5094416;28;20482;-57
2022/06/17 06:30:52;;;;;;;0.50;0.43;;;;;;;24.26;100.00;95588.28;5094429;28;20452;-55
2022/06/17 06:33:22;;;;;;;1.80;1.70;;;;;;;23.71;100.00;95598.03;5094354;28;20456;-55
2022/06/17 06:35:51;;;;;;;0.70;0.70;;;;;;;24.19;100.00;95594.28;5094184;28;20876;-56
2022/06/17 06:38:20;;;;;;;1.17;1.17;;;;;;;23.05;100.00;95475.19;5094111;28;20481;-56
2022/06/17 06:40:49;;;;;;;2.20;1.30;;;;;;;24.16;100.00;95586.84;5094608;28;20416;-56
2022/06/17 06:43:19;;;;;;;1.03;0.80;;;;;;;24.92;100.00;95580.19;5094082;28;20511;-56
2022/06/17 06:45:50;;;;;;;1.07;1.07;;;;;;;25.15;100.00;95572.91;5092755;28;20452;-56
2022/06/17 06:48:21;;;;;;;1.10;1.00;;;;;;;24.70;100.00;95561.81;5094051;28;20952;-56
2022/06/17 06:50:51;;;;;;;0.97;0.97;;;;;;;25.27;100.00;95572.81;5093900;28;20467;-57
2022/06/17 06:53:19;;;;;;;1.23;1.13;;;;;;;24.80;100.00;95575.66;5093929;28;20425;-57
2022/06/17 06:55:50;;;;;;;1.07;0.97;;;;;;;24.57;100.00;95571.97;5093901;28;20491;-58
2022/06/17 06:58:22;;;;;;;0.90;0.90;;;;;;;25.65;100.00;95561.94;5094103;28;20452;-58
2022/06/17 07:01:00;;;;;;;1.00;0.80;;;;;;;25.94;99.91;95557.03;5093899;28;20463;-58
2022/06/17 07:03:41;;;;;;;1.03;0.97;;;;;;;26.05;97.55;95531.66;5093608;28;20847;-57
2022/06/17 07:06:14;;;;;;;4.70;0.80;;;;;;;25.72;97.95;95548.53;5093549;28;20416;-57
2022/06/17 07:08:43;;;;;;;2.30;0.90;;;;;;;25.45;100.00;95533.25;5093414;28;20916;-58
2022/06/17 07:11:13;;;;;;;1.20;1.20;;;;;;;25.58;100.00;95542.03;5093528;28;20456;-57
2022/06/17 07:13:44;;;;;;;14.63;1.03;;;;;;;25.35;95.16;95528.38;5093591;28;20425;-58
2022/06/17 07:16:14;;;;;;;1.90;0.67;;;;;;;24.94;92.45;95529.88;5093428;28;21238;-58
2022/06/17 07:18:45;;;;;;;1.27;1.27;;;;;;;24.74;100.00;95536.38;5093913;28;20428;-57
2022/06/17 07:21:15;;;;;;;1.07;1.00;;;;;;;25.32;100.00;95531.81;5093447;28;20982;-57
2022/06/17 07:23:45;;;;;;;1.13;1.00;;;;;;;26.31;100.00;95523.56;5093423;28;20482;-57
2022/06/17 07:26:17;;;;;;;1.43;1.37;;;;;;;26.09;90.27;95521.63;5093309;28;20466;-57
2022/06/17 07:28:46;;;;;;;0.90;0.90;;;;;;;26.44;91.70;95492.31;5093252;28;20452;-57
2022/06/17 07:31:15;;;;;;;1.90;1.10;;;;;;;26.42;78.01;95472.88;5093271;28;20421;-62
2022/06/17 07:33:43;;;;;;;2.50;1.67;;;;;;;25.99;81.07;95477.97;5093560;28;20451;-63
2022/06/17 07:39:53;;;;;;;0.70;0.70;;;;;;;26.93;86.38;95511.31;5093006;28;20903;-64
2022/06/17 07:41:54;;;;;;;1.40;1.30;;;;;;;26.96;77.85;95507.06;5092262;28;20516;-62
2022/06/17 07:44:23;;;;;;;0.97;0.97;;;;;;;26.76;81.45;95502.88;5092691;28;20448;-62
2022/06/17 07:46:51;;;;;;;0.50;0.50;;;;;;;27.35;91.40;95494.72;5093375;28;20749;-63
2022/06/17 07:49:20;;;;;;;1.17;1.07;;;;;;;27.52;81.74;95496.91;5092942;28;20425;-64
2022/06/17 07:51:50;;;;;;;1.40;1.30;;;;;;;27.59;78.99;95447.97;5093211;28;20455;-65
2022/06/17 07:54:18;;;;;;;0.50;0.50;;;;;;;28.15;78.25;95495.97;5092616;28;20554;-64
2022/06/17 07:56:54;;;;;;;0.73;0.70;;;;;;;28.15;78.25;95494.03;5092262;28;21045;-65
2022/06/17 07:59:22;;;;;;;1.80;0.90;;;;;;;27.41;79.93;95471.50;5092793;28;20519;-65
2022/06/17 08:01:51;;;;;;;0.70;0.50;;;;;;;28.18;87.65;95463.28;5093041;28;20500;-65
2022/06/17 08:04:20;;;;;;;0.53;0.53;;;;;;;28.61;71.57;95463.63;5092975;28;20452;-65
2022/06/17 08:06:50;;;;;;;0.53;0.53;;;;;;;28.10;70.41;95490.88;5092859;28;20497;-65
2022/06/17 08:09:19;;;;;;;0.50;0.50;;;;;;;28.51;76.65;95477.94;5092523;28;20893;-65
2022/06/17 08:11:48;;;;;;;2.93;1.60;;;;;;;28.49;74.68;95470.13;5092256;28;20507;-65
2022/06/17 08:14:17;;;;;;;3.80;1.80;;;;;;;28.42;69.60;95453.72;5092446;28;20515;-64
2022/06/17 08:16:46;;;;;;;0.83;0.60;;;;;;;29.42;67.61;95464.75;5092301;28;20996;-64
2022/06/17 08:19:15;;;;;;;2.20;1.43;;;;;;;28.13;70.28;95465.59;5092300;28;20456;-65
2022/06/17 08:21:44;;;;;;;0.93;0.83;;;;;;;28.75;71.57;95420.03;5092499;28;20448;-64
2022/06/17 08:24:29;;;;;;;0.70;0.60;;;;;;;29.24;65.18;95449.50;5092283;28;20420;-64
2022/06/17 08:26:57;;;;;;;1.10;1.10;;;;;;;28.52;67.21;95441.31;5092213;28;20507;-64
2022/06/17 08:29:26;;;;;;;1.07;0.90;;;;;;;28.97;70.34;95423.66;5092240;28;20578;-65
2022/06/17 08:35:00;;;;;;;1.03;0.93;;;;;;;29.66;61.02;95364.91;5091904;28;20459;-65
2022/06/17 08:37:29;;;;;;;0.80;0.77;;;;;;;29.71;59.99;95473.81;5095220;28;20464;-64
2022/06/17 08:39:59;;;;;;;1.03;0.93;;;;;;;29.30;62.04;95448.72;5094557;28;20459;-64
2022/06/17 08:42:43;;;;;;;0.90;0.90;;;;;;;28.52;60.20;95229.38;5094380;28;20469;-63
2022/06/17 08:45:23;;;;;;;0.60;0.60;;;;;;;29.57;60.69;95386.38;5092164;28;20516;-64
2022/06/17 08:48:10;;;;;;;0.70;0.70;;;;;;;29.82;56.80;95419.22;5092027;28;20907;-63
2022/06/17 08:50:50;;;;;;;1.00;0.90;;;;;;;29.49;57.51;95298.19;5092032;28;20996;-63
2022/06/17 08:53:54;;;;;;;0.80;0.60;;;;;;;31.02;56.74;95433.50;5092289;28;20455;-63
2022/06/17 08:56:33;;;;;;;0.40;0.40;;;;;;;31.49;54.14;95436.84;5082018;28;20509;-65
2022/06/17 08:59:14;;;;;;;2.10;0.77;;;;;;;30.78;55.74;95429.66;5091970;28;20423;-63
2022/06/17 09:01:51;;;;;;;0.53;0.50;;;;;;;30.54;56.30;95306.59;5091244;28;20435;-63
2022/06/17 09:04:47;;;;;;;0.83;0.83;;;;;;;31.40;51.26;95431.75;5091880;28;20506;-63
2022/06/17 09:07:23;;;;;;;1.37;0.87;;;;;;;30.01;54.69;95397.72;5087042;28;21201;-63
2022/06/17 09:10:08;;;;;;;0.70;0.70;;;;;;;30.36;56.80;95282.06;5094338;28;20451;-63
2022/06/17 09:12:52;;;;;;;0.97;0.53;;;;;;;31.15;57.74;95401.75;5096347;28;20823;-64
2022/06/17 09:15:32;;;;;;;0.57;0.57;;;;;;;30.95;57.14;95419.06;5095913;28;20778;-63
2022/06/17 09:18:07;;;;;;;0.80;0.80;;;;;;;31.29;58.37;95379.78;5095923;28;20502;-63
2022/06/17 09:20:40;;;;;;;0.70;0.70;;;;;;;31.00;51.27;95378.38;5095646;28;20510;-63
2022/06/17 09:23:18;;;;;;;2.70;0.73;;;;;;;31.51;53.16;95364.03;5095855;28;20423;-62
2022/06/17 09:25:49;;;;;;;0.50;0.50;;;;;;;31.35;54.43;95411.03;5095275;28;20519;-63
2022/06/17 09:28:22;;;;;;;0.70;0.67;;;;;;;31.87;52.43;95406.44;5095643;28;20447;-62
2022/06/17 09:30:56;;;;;;;0.40;0.40;;;;;;;31.73;51.61;95403.78;5095590;28;20419;-64
2022/06/17 09:33:29;;;;;;;0.70;0.40;;;;;;;32.71;48.55;95400.59;5095673;28;20420;-68
2022/06/17 09:36:06;;;;;;;0.97;0.97;;;;;;;31.30;50.25;95397.00;5094790;28;20514;-67
2022/06/17 09:38:41;;;;;;;0.70;0.70;;;;;;;31.75;51.45;95403.41;5095499;28;20415;-66
2022/06/17 09:41:15;;;;;;;4.87;0.60;;;;;;;31.55;50.33;95394.16;5095536;28;20506;-66
2022/06/17 09:43:53;;;;;;;0.70;0.53;;;;;;;31.98;49.41;95360.53;5095544;28;20480;-66
2022/06/17 09:46:27;;;;;;;0.93;0.93;;;;;;;31.19;49.90;95278.53;5094810;28;20427;-66
2022/06/17 09:49:01;;;;;;;0.70;0.70;;;;;;;32.27;46.92;95387.69;5095215;28;20423;-66
2022/06/17 09:51:35;;;;;;;0.60;0.60;;;;;;;32.82;46.38;95385.56;5094560;28;20420;-67
2022/06/17 09:54:11;;;;;;;1.40;1.33;;;;;;;30.90;50.83;95368.25;5094934;28;20550;-67
2022/06/17 09:56:44;;;;;;;1.30;1.20;;;;;;;30.89;50.45;95361.19;5095133;28;20550;-67
2022/06/17 09:59:20;;;;;;;2.93;0.80;;;;;;;31.78;45.88;95383.38;5095237;28;20835;-66
2022/06/17 10:01:49;;;;;;;0.83;0.83;;;;;;;31.88;47.97;95386.03;5095396;28;20443;-66
2022/06/17 10:04:18;;;;;;;0.50;0.50;;;;;;;32.45;47.66;95372.63;5094942;28;20424;-67
2022/06/17 10:07:01;;;;;;;0.73;0.70;;;;;;;33.10;45.73;95379.75;5094955;28;20426;-66
2022/06/17 10:09:47;;;;;;;1.37;1.30;;;;;;;33.33;42.97;95370.78;5095151;28;20499;-66
2022/06/17 10:12:25;;;;;;;0.40;0.33;;;;;;;33.22;42.77;95368.19;5094823;28;20925;-66
2022/06/17 10:15:15;;;;;;;0.77;0.73;;;;;;;33.00;43.65;95368.84;5094061;28;20424;-67
2022/06/17 10:20:51;;;;;;;0.60;0.60;;;;;;;31.95;40.82;95358.56;5097142;28;20431;-67
2022/06/17 10:23:30;;;;;;;0.53;0.53;;;;;;;32.21;40.02;95359.13;5095002;28;20421;-67
2022/06/17 10:26:14;;;;;;;1.00;0.50;;;;;;;31.90;39.92;95352.75;5095177;28;20474;-67
2022/06/17 10:28:59;;;;;;;0.93;0.60;;;;;;;32.81;40.01;95345.56;5102110;28;20452;-66
2022/06/17 10:31:40;;;;;;;0.83;0.83;;;;;;;33.07;38.63;95336.63;5101281;28;20455;-66
2022/06/17 10:34:14;;;;;;;0.60;0.50;;;;;;;32.58;39.50;95299.59;5101218;28;20451;-66
2022/06/17 10:36:44;;;;;;;0.80;0.80;;;;;;;31.95;37.54;95338.63;5103809;28;20443;-66
2022/06/17 10:39:16;;;;;;;0.77;0.77;;;;;;;33.29;40.44;95320.63;5101454;28;20429;-67
2022/06/17 10:41:44;;;;;;;0.80;0.77;;;;;;;32.36;37.02;95309.22;5102698;28;20797;-66
2022/06/17 10:44:16;;;;;;;2.77;0.60;;;;;;;32.35;37.79;95321.38;5107500;28;20451;-67
2022/06/17 10:46:54;;;;;;;0.40;0.40;;;;;;;31.88;37.50;95169.47;5101966;28;20420;-66
2022/06/17 10:49:30;;;;;;;4.10;0.70;;;;;;;32.26;37.06;95274.44;5099632;28;20435;-68
2022/06/17 10:52:04;;;;;;;0.63;0.63;;;;;;;33.23;37.31;95306.56;5095693;28;20460;-67
2022/06/17 10:54:35;;;;;;;0.60;0.60;;;;;;;33.31;37.33;95311.94;5108287;28;20510;-67
2022/06/17 10:57:08;;;;;;;0.67;0.57;;;;;;;33.94;35.90;95308.19;5098404;28;20490;-67
2022/06/17 10:59:39;;;;;;;0.50;0.50;;;;;;;32.49;35.23;95318.47;5094491;28;20423;-68
2022/06/17 11:02:25;;;;;;;0.47;0.47;;;;;;;32.68;34.80;95313.59;5093952;28;20486;-68
2022/06/17 11:04:56;;;;;;;0.40;0.40;;;;;;;33.46;34.65;95314.06;5094029;28;20504;-68
2022/06/17 11:07:28;;;;;;;0.40;0.40;;;;;;;33.50;32.72;95309.28;5094000;28;20463;-68
2022/06/17 11:10:00;;;;;;;0.40;0.40;;;;;;;34.29;32.06;95299.31;5093314;28;20479;-67
2022/06/17 11:12:35;;;;;;;1.20;0.47;;;;;;;33.55;32.23;95308.09;5093543;28;20536;-68
2022/06/17 11:15:06;;;;;;;0.57;0.50;;;;;;;33.22;32.44;95293.22;5092878;28;20421;-68
2022/06/17 11:17:40;;;;;;;0.50;0.50;;;;;;;32.88;34.24;95303.50;5092643;28;20500;-68
2022/06/17 11:20:23;;;;;;;0.83;0.70;;;;;;;33.31;34.44;95244.06;5093207;28;20549;-69
2022/06/17 11:23:19;;;;;;;0.40;0.33;;;;;;;33.44;31.71;95296.44;5092555;28;20434;-69
2022/06/17 11:25:48;;;;;;;0.53;0.53;;;;;;;33.93;32.26;95281.88;5093260;28;20454;-68
2022/06/17 11:28:24;;;;;;;0.50;0.30;;;;;;;34.53;32.37;95269.00;5092888;28;20461;-69
2022/06/17 11:30:54;;;;;;;0.87;0.50;;;;;;;34.70;31.60;95284.38;5092556;28;20416;-69
2022/06/17 11:33:28;;;;;;;0.60;0.60;;;;;;;33.20;33.03;95293.66;5092709;28;20487;-69
2022/06/17 11:36:03;;;;;;;0.63;0.60;;;;;;;32.58;32.32;95285.88;5092724;28;20428;-71
2022/06/17 11:38:34;;;;;;;0.57;0.57;;;;;;;33.88;32.25;95246.63;5092762;28;20548;-69
2022/06/17 11:41:23;;;;;;;0.80;0.60;;;;;;;32.60;32.11;95268.97;5092118;28;20429;-69
2022/06/17 11:43:53;;;;;;;0.40;0.30;;;;;;;34.20;31.98;95262.56;5092841;28;20498;-69
2022/06/17 11:46:24;;;;;;;0.50;0.40;;;;;;;33.59;31.42;95171.38;5092375;28;20424;-69
2022/06/17 11:49:03;;;;;;;0.63;0.60;;;;;;;32.19;33.62;95269.03;5092974;28;20411;-69
2022/06/17 11:51:34;;;;;;;0.67;0.43;;;;;;;34.05;31.29;95261.25;5092869;28;20987;-70
2022/06/17 11:54:11;;;;;;;0.40;0.30;;;;;;;34.48;31.11;95267.50;5091923;28;20512;-69
2022/06/17 11:56:42;;;;;;;0.60;0.60;;;;;;;35.00;29.71;95265.63;5092387;28;20421;-70
2022/06/17 11:59:13;;;;;;;0.60;0.40;;;;;;;34.55;29.86;95253.63;5092600;28;20911;-71
2022/06/17 12:01:48;;;;;;;0.60;0.60;;;;;;;34.24;29.28;95268.75;5093515;28;20428;-71
2022/06/17 12:04:40;;;;;;;0.50;0.50;;;;;;;33.76;29.66;95266.47;5093110;28;20450;-71
2022/06/17 12:07:29;;;;;;;0.60;0.60;;;;;;;33.48;30.47;95256.72;5092666;28;20493;-69
2022/06/17 12:10:06;;;;;;;0.80;0.47;;;;;;;32.95;32.57;95256.72;5092106;28;20422;-69
2022/06/17 12:12:36;;;;;;;0.60;0.60;;;;;;;33.26;31.04;95258.25;5092486;28;20418;-70